createdAt,value
2022-07-27T00:01:15.622Z,33.20
2022-07-27T00:04:18.297Z,33.20
2022-07-27T00:07:20.502Z,33.20
2022-07-27T00:10:22.830Z,33.60
2022-07-27T00:13:24.981Z,32.80
2022-07-27T00:16:28.088Z,33.00
2022-07-27T00:19:30.273Z,33.10
2022-07-27T00:22:32.249Z,33.00
2022-07-27T00:25:35.217Z,32.90
2022-07-27T00:28:37.296Z,32.90
2022-07-27T00:31:39.470Z,33.50
2022-07-27T00:34:41.496Z,32.70
2022-07-27T00:37:43.642Z,32.50
2022-07-27T00:40:45.977Z,32.90
2022-07-27T00:43:50.840Z,32.60
2022-07-27T00:46:53.284Z,32.60
2022-07-27T00:49:55.520Z,32.70
2022-07-27T00:52:57.794Z,32.40
2022-07-27T00:56:00.106Z,32.00
2022-07-27T00:59:02.289Z,33.00
2022-07-27T01:02:05.828Z,31.60
2022-07-27T01:05:13.563Z,31.50
2022-07-27T01:08:16.072Z,32.10
2022-07-27T01:11:18.041Z,32.10
2022-07-27T01:14:20.670Z,32.10
2022-07-27T01:17:30.963Z,32.30
2022-07-27T01:20:34.088Z,32.40
2022-07-27T01:23:36.358Z,32.60
2022-07-27T01:26:39.121Z,32.30
2022-07-27T01:29:41.664Z,32.60
2022-07-27T01:32:43.889Z,32.40
2022-07-27T01:35:46.112Z,32.40
2022-07-27T01:38:48.377Z,32.10
2022-07-27T01:41:50.368Z,32.20
2022-07-27T01:44:52.578Z,32.60
2022-07-27T01:47:54.525Z,32.50
2022-07-27T01:50:56.974Z,32.50
2022-07-27T01:53:59.010Z,32.60
2022-07-27T01:57:01.206Z,32.60
2022-07-27T02:00:06.279Z,32.80
2022-07-27T02:03:09.744Z,32.90
2022-07-27T02:06:11.751Z,33.00
2022-07-27T02:09:14.417Z,33.00
2022-07-27T02:12:35.198Z,32.90
2022-07-27T02:15:42.982Z,33.10
2022-07-27T02:18:48.644Z,33.00
2022-07-27T02:21:51.094Z,33.00
2022-07-27T02:24:53.071Z,33.10
2022-07-27T02:27:55.186Z,33.10
2022-07-27T02:30:57.204Z,33.00
2022-07-27T02:33:59.523Z,33.00
2022-07-27T02:37:01.486Z,33.80
2022-07-27T02:40:04.129Z,33.20
2022-07-27T02:43:06.144Z,33.40
2022-07-27T02:46:08.310Z,33.20
2022-07-27T02:49:11.250Z,33.20
2022-07-27T02:52:13.562Z,33.90
2022-07-27T02:55:15.538Z,33.50
2022-07-27T02:58:17.687Z,33.30
2022-07-27T03:01:19.782Z,33.20
2022-07-27T03:04:22.151Z,33.10
2022-07-27T03:07:24.131Z,33.00
2022-07-27T03:10:26.305Z,32.90
2022-07-27T03:13:29.051Z,33.20
2022-07-27T03:16:31.226Z,33.00
2022-07-27T03:19:33.143Z,33.30
2022-07-27T03:22:35.294Z,33.30
2022-07-27T03:25:37.275Z,33.20
2022-07-27T03:28:39.413Z,33.60
2022-07-27T03:31:41.407Z,33.70
2022-07-27T03:34:43.551Z,33.90
2022-07-27T03:37:45.475Z,34.00
2022-07-27T03:40:47.655Z,34.60
2022-07-27T03:43:49.625Z,35.40
2022-07-27T03:46:51.851Z,34.50
2022-07-27T03:49:53.941Z,35.00
2022-07-27T03:52:56.454Z,34.50
2022-07-27T03:55:58.438Z,34.70
2022-07-27T03:59:01.205Z,34.60
2022-07-27T04:02:04.675Z,34.70
2022-07-27T04:05:07.963Z,35.20
2022-07-27T04:08:09.955Z,35.00
2022-07-27T04:11:12.152Z,35.30
2022-07-27T04:14:15.962Z,35.80
2022-07-27T04:17:54.951Z,35.30
2022-07-27T04:20:40.328Z,35.40
2022-07-27T04:23:42.601Z,33.50
2022-07-27T04:26:44.915Z,32.70
2022-07-27T04:29:47.082Z,32.10
2022-07-27T04:32:49.089Z,30.70
2022-07-27T04:35:51.446Z,30.40
2022-07-27T04:38:53.463Z,31.00
2022-07-27T04:41:56.058Z,30.00
2022-07-27T04:44:58.128Z,29.60
2022-07-27T04:48:04.873Z,30.00
2022-07-27T04:51:07.997Z,29.70
2022-07-27T04:54:11.290Z,29.50
2022-07-27T04:57:13.273Z,30.00
2022-07-27T05:00:15.828Z,30.10
2022-07-27T05:03:18.539Z,31.20
2022-07-27T05:06:20.868Z,29.90
2022-07-27T05:09:22.848Z,29.30
2022-07-27T05:12:25.028Z,29.30
2022-07-27T05:15:27.167Z,29.40
2022-07-27T05:18:29.368Z,29.40
2022-07-27T05:21:31.314Z,29.50
2022-07-27T05:24:33.516Z,29.50
2022-07-27T05:27:37.219Z,29.40
2022-07-27T05:30:56.740Z,29.00
2022-07-27T05:33:58.877Z,28.20
2022-07-27T05:37:01.136Z,28.90
2022-07-27T05:40:05.755Z,28.60
2022-07-27T05:43:07.945Z,28.50
2022-07-27T05:46:10.026Z,27.00
2022-07-27T05:49:12.679Z,27.10
2022-07-27T05:52:15.600Z,27.50
2022-07-27T05:55:17.749Z,26.90
2022-07-27T05:58:19.770Z,26.40
2022-07-27T06:01:26.614Z,26.70
2022-07-27T06:04:28.659Z,26.70
2022-07-27T06:07:49.728Z,27.60
2022-07-27T06:10:51.977Z,26.50
2022-07-27T06:13:56.042Z,27.10
2022-07-27T06:16:58.724Z,27.30
2022-07-27T06:20:00.967Z,26.40
2022-07-27T06:23:07.750Z,25.10
2022-07-27T06:26:10.553Z,24.50
2022-07-27T06:29:12.940Z,24.50
2022-07-27T06:32:15.535Z,24.20
2022-07-27T06:35:17.777Z,23.10
2022-07-27T06:38:27.812Z,23.30
2022-07-27T06:41:31.695Z,22.80
2022-07-27T06:44:33.881Z,23.10
2022-07-27T06:47:36.180Z,23.00
2022-07-27T06:50:52.401Z,23.50
2022-07-27T06:53:54.530Z,23.40
2022-07-27T06:56:56.733Z,23.20
2022-07-27T06:59:58.675Z,24.10
2022-07-27T07:03:03.678Z,25.70
2022-07-27T07:06:05.846Z,25.50
2022-07-27T07:09:09.166Z,24.70
2022-07-27T07:12:11.458Z,24.40
2022-07-27T07:15:13.627Z,23.90
2022-07-27T07:18:15.622Z,22.90
2022-07-27T07:21:17.927Z,22.90
2022-07-27T07:24:19.909Z,23.10
2022-07-27T07:27:23.558Z,22.60
2022-07-27T07:30:26.547Z,22.80
2022-07-27T07:33:28.861Z,22.80
2022-07-27T07:36:31.057Z,22.70
2022-07-27T07:39:33.294Z,22.90
2022-07-27T07:42:52.623Z,22.90
2022-07-27T07:45:55.349Z,23.30
2022-07-27T07:48:57.753Z,22.80
2022-07-27T07:52:00.020Z,22.60
2022-07-27T07:55:01.989Z,22.00
2022-07-27T07:58:04.145Z,22.70
2022-07-27T08:01:06.119Z,21.20
2022-07-27T08:04:08.275Z,22.10
2022-07-27T08:07:10.269Z,20.90
2022-07-27T08:10:13.966Z,20.80
2022-07-27T08:13:21.478Z,20.10
2022-07-27T08:16:24.374Z,19.90
2022-07-27T08:19:26.358Z,19.40
2022-07-27T08:22:28.602Z,19.70
2022-07-27T08:25:31.228Z,19.90
2022-07-27T08:28:37.155Z,20.50
2022-07-27T08:31:52.811Z,20.00
2022-07-27T08:34:56.293Z,20.20
2022-07-27T08:37:58.721Z,20.50
2022-07-27T08:41:02.842Z,19.10
2022-07-27T08:44:06.612Z,19.50
2022-07-27T08:47:10.571Z,19.00
2022-07-27T08:50:24.311Z,19.50
2022-07-27T08:53:26.514Z,19.80
2022-07-27T08:56:48.658Z,20.50
2022-07-27T08:59:51.925Z,21.10
2022-07-27T09:02:55.958Z,20.10
2022-07-27T09:05:58.508Z,20.80
2022-07-27T09:09:00.595Z,20.40
2022-07-27T09:12:10.514Z,20.60
2022-07-27T09:15:14.955Z,20.30
2022-07-27T09:18:23.069Z,20.40
2022-07-27T09:21:26.856Z,20.70
2022-07-27T09:24:46.133Z,21.10
2022-07-27T09:27:53.340Z,21.40
2022-07-27T09:30:55.566Z,20.90
2022-07-27T09:34:02.541Z,20.70
2022-07-27T09:37:06.520Z,20.70
2022-07-27T09:40:16.819Z,21.10
2022-07-27T09:44:28.373Z,20.80
2022-07-27T09:46:48.771Z,21.50
2022-07-27T09:49:50.995Z,21.50
2022-07-27T09:52:52.929Z,20.80
2022-07-27T09:56:13.190Z,21.30
2022-07-27T09:59:19.628Z,20.30
2022-07-27T10:02:22.104Z,20.10
2022-07-27T10:05:24.519Z,20.30
2022-07-27T10:08:27.083Z,20.50
2022-07-27T10:11:29.486Z,20.30
2022-07-27T10:14:32.816Z,20.90
2022-07-27T10:17:35.635Z,21.10
2022-07-27T10:20:39.595Z,20.40
2022-07-27T10:23:58.620Z,20.30
2022-07-27T10:27:22.467Z,19.90
2022-07-27T10:30:28.121Z,20.50
2022-07-27T10:33:51.588Z,21.20
2022-07-27T10:36:54.288Z,20.10
2022-07-27T10:40:19.004Z,20.20
2022-07-27T10:43:22.514Z,20.00
2022-07-27T10:46:24.712Z,19.50
2022-07-27T10:49:32.875Z,20.00
2022-07-27T10:52:43.543Z,19.70
2022-07-27T10:55:46.988Z,19.90
2022-07-27T10:58:51.271Z,19.50
2022-07-27T11:01:57.744Z,19.60
2022-07-27T11:05:05.191Z,19.50
2022-07-27T11:08:35.987Z,20.00
2022-07-27T11:11:29.805Z,19.70
2022-07-27T11:14:32.058Z,19.90
2022-07-27T11:21:25.409Z,20.90
2022-07-27T11:24:28.982Z,21.00
2022-07-27T11:27:31.202Z,21.30
2022-07-27T11:30:33.464Z,21.40
2022-07-27T11:33:36.139Z,20.70
2022-07-27T11:36:51.970Z,20.20
2022-07-27T11:40:04.907Z,20.30
2022-07-27T11:43:39.967Z,20.90
2022-07-27T11:46:45.502Z,20.60
2022-07-27T11:49:47.769Z,20.80
2022-07-27T11:53:01.548Z,20.20
2022-07-27T11:56:04.492Z,20.10
2022-07-27T11:59:15.987Z,20.30
2022-07-27T12:02:23.116Z,20.30
2022-07-27T12:05:25.301Z,20.20
2022-07-27T12:08:27.831Z,20.20
2022-07-27T12:11:57.596Z,20.40
2022-07-27T12:15:44.303Z,20.80
2022-07-27T12:18:43.480Z,20.60
2022-07-27T12:21:52.229Z,20.30
2022-07-27T12:24:55.768Z,20.30
2022-07-27T12:28:00.624Z,20.30
2022-07-27T12:31:15.769Z,20.00
2022-07-27T12:34:18.024Z,20.30
2022-07-27T12:37:20.270Z,20.50
2022-07-27T12:40:22.428Z,20.80
2022-07-27T12:43:26.173Z,20.80
2022-07-27T12:46:28.396Z,20.90
2022-07-27T12:49:34.750Z,20.70
2022-07-27T12:52:43.165Z,20.90
2022-07-27T12:55:46.672Z,21.00
2022-07-27T12:59:01.470Z,20.60
2022-07-27T13:02:03.594Z,20.70
2022-07-27T13:05:08.404Z,21.40
2022-07-27T13:08:10.703Z,21.20
2022-07-27T13:11:13.767Z,21.10
2022-07-27T13:14:16.109Z,21.40
2022-07-27T13:17:18.573Z,21.10
2022-07-27T13:20:20.757Z,20.90
2022-07-27T13:23:23.115Z,21.30
2022-07-27T13:26:25.322Z,21.40
2022-07-27T13:29:30.012Z,21.50
2022-07-27T13:32:34.572Z,22.10
2022-07-27T13:35:37.088Z,21.50
2022-07-27T13:38:39.137Z,21.40
2022-07-27T13:41:41.878Z,21.70
2022-07-27T13:45:03.843Z,21.40
2022-07-27T13:48:06.299Z,20.90
2022-07-27T13:51:17.699Z,21.30
2022-07-27T13:54:20.377Z,21.60
2022-07-27T13:57:22.501Z,21.30
2022-07-27T14:00:25.038Z,21.20
2022-07-27T14:03:27.004Z,21.10
2022-07-27T14:06:31.135Z,20.90
2022-07-27T14:09:51.750Z,20.90
2022-07-27T14:12:58.607Z,20.70
2022-07-27T14:16:01.700Z,20.40
2022-07-27T14:19:09.330Z,20.20
2022-07-27T14:22:14.524Z,20.60
2022-07-27T14:25:17.446Z,20.00
2022-07-27T14:28:19.725Z,20.20
2022-07-27T14:31:21.921Z,20.00
2022-07-27T14:34:23.909Z,20.50
2022-07-27T14:37:26.651Z,20.40
2022-07-27T14:40:28.847Z,20.50
2022-07-27T14:43:31.623Z,20.30
2022-07-27T14:46:33.720Z,20.50
2022-07-27T14:49:35.992Z,21.00
2022-07-27T14:52:37.995Z,21.20
2022-07-27T14:55:42.454Z,20.90
2022-07-27T14:58:44.504Z,20.50
2022-07-27T15:01:47.542Z,20.20
2022-07-27T15:04:49.823Z,20.20
2022-07-27T15:07:51.988Z,20.80
2022-07-27T15:10:54.219Z,20.80
2022-07-27T15:13:56.594Z,20.90
2022-07-27T15:16:58.817Z,20.90
2022-07-27T15:20:01.075Z,21.40
2022-07-27T15:23:04.093Z,22.30
2022-07-27T15:26:06.326Z,22.70
2022-07-27T15:29:10.027Z,22.50
2022-07-27T15:32:17.476Z,22.10
2022-07-27T15:35:19.500Z,21.50
2022-07-27T15:38:22.134Z,20.70
2022-07-27T15:41:24.056Z,20.30
2022-07-27T15:44:26.295Z,20.30
2022-07-27T15:47:28.351Z,20.20
2022-07-27T15:50:30.502Z,20.30
2022-07-27T15:53:32.598Z,19.90
2022-07-27T15:56:34.842Z,20.00
2022-07-27T15:59:36.767Z,20.30
2022-07-27T16:02:39.039Z,20.20
2022-07-27T16:05:42.690Z,20.20
2022-07-27T16:08:45.675Z,20.90
2022-07-27T16:11:47.611Z,21.40
2022-07-27T16:14:49.853Z,21.10
2022-07-27T16:17:51.807Z,21.60
2022-07-27T16:20:56.035Z,20.70
2022-07-27T16:23:58.473Z,21.30
2022-07-27T16:27:00.775Z,21.00
2022-07-27T16:30:03.342Z,21.20
2022-07-27T16:33:05.612Z,21.30
2022-07-27T16:36:08.729Z,21.80
2022-07-27T16:39:11.373Z,22.00
2022-07-27T16:42:13.573Z,21.80
2022-07-27T16:45:16.014Z,21.70
2022-07-27T16:48:19.541Z,22.10
2022-07-27T16:51:21.786Z,21.60
2022-07-27T16:54:24.107Z,20.90
2022-07-27T16:57:26.742Z,21.90
2022-07-27T17:00:28.815Z,22.40
2022-07-27T17:03:30.999Z,22.50
2022-07-27T17:06:35.137Z,22.60
2022-07-27T17:09:37.244Z,21.80
2022-07-27T17:12:39.492Z,21.80
2022-07-27T17:15:41.663Z,21.80
2022-07-27T17:18:43.738Z,21.90
2022-07-27T17:21:46.169Z,21.80
2022-07-27T17:24:48.679Z,21.70
2022-07-27T17:27:51.933Z,21.60
2022-07-27T17:30:53.944Z,21.60
2022-07-27T17:33:56.849Z,21.50
2022-07-27T17:36:58.814Z,21.90
2022-07-27T17:40:00.967Z,22.00
2022-07-27T17:43:03.116Z,22.30
2022-07-27T17:46:06.384Z,22.80
2022-07-27T17:49:09.963Z,22.60
2022-07-27T17:52:14.037Z,22.90
2022-07-27T17:55:16.081Z,21.90
2022-07-27T17:58:18.249Z,21.80
2022-07-27T18:01:46.712Z,21.40
2022-07-27T18:04:42.772Z,21.60
2022-07-27T18:07:44.779Z,21.80
2022-07-27T18:10:47.502Z,21.50
2022-07-27T18:13:49.457Z,21.10
2022-07-27T18:16:51.617Z,20.90
2022-07-27T18:19:53.625Z,21.10
2022-07-27T18:22:56.472Z,21.00
2022-07-27T18:25:58.416Z,20.80
2022-07-27T18:29:00.580Z,20.80
2022-07-27T18:32:02.590Z,20.90
2022-07-27T18:35:06.018Z,21.10
2022-07-27T18:38:09.083Z,20.80
2022-07-27T18:41:12.918Z,20.90
2022-07-27T18:44:14.915Z,21.20
2022-07-27T18:47:17.204Z,21.10
2022-07-27T18:50:19.293Z,21.20
2022-07-27T18:53:21.614Z,21.20
2022-07-27T18:56:24.037Z,21.20
2022-07-27T18:59:26.387Z,21.30
2022-07-27T19:02:28.553Z,21.40
2022-07-27T19:05:40.804Z,21.70
2022-07-27T19:08:44.447Z,21.90
2022-07-27T19:11:46.924Z,21.90
2022-07-27T19:14:51.069Z,21.80
2022-07-27T19:17:53.829Z,21.80
2022-07-27T19:20:55.790Z,21.90
2022-07-27T19:23:58.265Z,21.90
2022-07-27T19:27:00.219Z,22.00
2022-07-27T19:30:02.460Z,21.90
2022-07-27T19:33:05.876Z,22.00
2022-07-27T19:36:08.145Z,22.40
2022-07-27T19:39:10.496Z,22.00
2022-07-27T19:42:12.845Z,22.00
2022-07-27T19:45:14.829Z,22.20
2022-07-27T19:48:17.130Z,22.50
2022-07-27T19:51:19.168Z,22.60
2022-07-27T19:54:21.326Z,22.70
2022-07-27T19:57:23.373Z,22.90
2022-07-27T20:00:25.895Z,22.90
2022-07-27T20:03:28.198Z,22.90
2022-07-27T20:06:31.562Z,23.10
2022-07-27T20:09:33.562Z,23.30
2022-07-27T20:12:36.068Z,23.20
2022-07-27T20:15:38.053Z,23.30
2022-07-27T20:18:40.260Z,23.80
2022-07-27T20:21:44.584Z,23.40
2022-07-27T20:24:46.833Z,23.60
2022-07-27T20:27:49.805Z,23.80
2022-07-27T20:30:52.327Z,25.40
2022-07-27T20:33:54.676Z,24.20
2022-07-27T20:36:56.861Z,24.50
2022-07-27T20:39:58.858Z,24.50
2022-07-27T20:43:01.030Z,24.20
2022-07-27T20:46:04.067Z,24.40
2022-07-27T20:49:06.328Z,24.40
2022-07-27T20:52:08.339Z,25.10
2022-07-27T20:55:11.016Z,24.20
2022-07-27T20:58:13.250Z,24.40
2022-07-27T21:01:15.954Z,24.50
2022-07-27T21:04:19.140Z,24.30
2022-07-27T21:07:21.792Z,24.40
2022-07-27T21:10:26.160Z,24.60
2022-07-27T21:13:36.332Z,25.50
2022-07-27T21:16:38.638Z,25.50
2022-07-27T21:19:40.936Z,25.10
2022-07-27T21:22:43.665Z,24.90
2022-07-27T21:25:46.590Z,24.70
2022-07-27T21:28:48.690Z,25.00
2022-07-27T21:31:51.071Z,25.40
2022-07-27T21:34:53.444Z,24.90
2022-07-27T21:37:55.589Z,25.10
2022-07-27T21:40:57.669Z,25.10
2022-07-27T21:44:00.419Z,25.50
2022-07-27T21:47:03.683Z,25.00
2022-07-27T21:50:06.337Z,25.30
2022-07-27T21:53:14.044Z,25.20
2022-07-27T21:56:16.915Z,25.70
2022-07-27T21:59:18.940Z,25.40
2022-07-27T22:02:21.148Z,25.10
2022-07-27T22:05:23.436Z,25.50
2022-07-27T22:08:25.584Z,25.30
2022-07-27T22:11:27.645Z,25.30
2022-07-27T22:14:29.777Z,25.50
2022-07-27T22:17:31.685Z,25.20
2022-07-27T22:20:33.821Z,25.50
2022-07-27T22:23:35.818Z,25.40
2022-07-27T22:26:38.097Z,25.30
2022-07-27T22:29:40.133Z,25.30
2022-07-27T22:32:42.314Z,25.20
2022-07-27T22:35:44.441Z,25.30
2022-07-27T22:38:46.593Z,25.40
2022-07-27T22:41:48.609Z,25.40
2022-07-27T22:44:50.767Z,25.40
2022-07-27T22:47:53.529Z,25.50
2022-07-27T22:50:55.628Z,25.70
2022-07-27T22:53:57.560Z,25.70
2022-07-27T22:56:59.827Z,25.40
2022-07-27T23:00:01.960Z,25.80
2022-07-27T23:03:04.240Z,25.90
2022-07-27T23:06:06.380Z,25.80
2022-07-27T23:09:08.506Z,25.90
2022-07-27T23:12:10.459Z,25.50
2022-07-27T23:15:12.622Z,25.70
2022-07-27T23:18:15.422Z,25.60
2022-07-27T23:21:17.805Z,25.70
2022-07-27T23:24:29.176Z,25.70
2022-07-27T23:27:31.611Z,25.90
2022-07-27T23:30:33.728Z,25.70
2022-07-27T23:33:36.046Z,25.70
2022-07-27T23:36:37.979Z,26.10
2022-07-27T23:39:40.096Z,25.90
2022-07-27T23:42:42.053Z,25.70
2022-07-27T23:45:44.213Z,25.60
2022-07-27T23:48:46.278Z,25.90
2022-07-27T23:51:48.577Z,25.90
2022-07-27T23:54:50.503Z,25.90
2022-07-27T23:57:52.784Z,25.70
